Capitol Logistics 466


KPVD
Theodore Francis Green State Airport
Providence, Rhode Island, US
KRFD
Chicago/Rockford International Airport
Rockford, Illinois, US

Route Details

Aircraft Information
Primary: Boeing 737-800BCF
Backup: Not Available
Route Data
Distance: 790nm
Sched. Duration: 1h 44m
Avg. Duration: 2h 27m (+83m)
Times Flown: 10
Recm'd Route: PUT CTR CAM Q822 FNT J547 OBK V24 KRENA V100 RFD
Planned Altitude: 38,000ft
Origin Wx: KPVD 061151Z 36009KT 10SM FEW075 FEW300 08/03 A3002 RMK AO2 SLP166 T00830033 10083 20033 53017
Dest. Wx: KRFD 061154Z 00000KT 10SM BKN120 OVC180 02/M04 A3012 RMK AO2 SLP203 VIRGA T00221039 10033 20011 56004
Notes:

Financial History
Total Freight: 482,089lbs
Average Load: 48,209lbs/flt
Fuel Used: 176,771lbs
Avg. Fuel Used: 17,677lbs/flt
Fuel Expense: $167,932
Avg. Fuel Expense: $16,793
Avg. Fuel Cost: $0.95/lbs
Total Gross Income: $629,536
Pilot Pay: $1,540
Total Expenses: $68,510
Total Revenue: $387,648
Average Revenue: $62,953.57